Stations météo

Publicité
Hadera Port, Israël (40175): Température de l'air & dewpoint: 20.11.2020 01:00:00 - 26.11.2020 01:00:00 (IST)Hadera Port, Israël (40175): Vitesse du vent: 20.11.2020 01:00:00 - 26.11.2020 01:00:00 (IST)Hadera Port, Israël (40175): Direction du vent: 20.11.2020 01:00:00 - 26.11.2020 01:00:00 (IST)
Date & Time tt [°C] td [°C] ff [km/h] ff [knt] dd
26.11.2020 01:00:00 - - - - -
26.11.2020 00:00:00 18,7 14,4 24 13 WSW
25.11.2020 23:00:00 - - - - -
25.11.2020 22:00:00 20,1 13,9 31 17 SW
25.11.2020 21:00:00 20,5 14,3 20 11 WSW
25.11.2020 20:00:00 19,9 14,8 24 13 SW
25.11.2020 19:00:00 20,5 15,2 18 10 NW
25.11.2020 18:00:00 - - - - -
25.11.2020 17:00:00 19,8 15,9 29 15 WNW
25.11.2020 16:00:00 21,8 15,4 22 12 W
25.11.2020 15:00:00 21,8 15,5 24 13 W
25.11.2020 14:00:00 22,6 14,6 17 9 WSW
25.11.2020 13:00:00 21,9 15,7 17 9 S
25.11.2020 12:00:00 22,0 16,3 17 9 S
25.11.2020 11:00:00 21,5 14,7 13 7 SSW
25.11.2020 10:00:00 20,6 13,2 10 6 SSE
25.11.2020 09:00:00 19,3 11,8 13 7 SSE
25.11.2020 08:00:00 17,9 10,5 11 6 ESE
25.11.2020 07:00:00 17,2 10,0 12 7 ESE
25.11.2020 06:00:00 17,2 10,0 11 6 ESE
25.11.2020 05:00:00 16,6 9,7 13 7 ESE
25.11.2020 04:00:00 17,1 9,4 15 8 ESE
25.11.2020 03:00:00 16,8 10,5 4 2 ESE
25.11.2020 02:00:00 16,9 10,8 4 2 ESE
25.11.2020 01:00:00 18,2 10,6 7 4 E
25.11.2020 00:00:00 18,7 11,4 7 4 ENE
24.11.2020 23:00:00 17,8 10,9 9 5 E
24.11.2020 22:00:00 18,7 12,7 10 5 ENE
24.11.2020 21:00:00 19,4 12,0 7 4 E
24.11.2020 20:00:00 19,6 12,4 10 5 E
24.11.2020 19:00:00 20,8 15,2 12 6 NNE
24.11.2020 18:00:00 21,4 14,2 15 8 NNE
24.11.2020 17:00:00 21,8 10,7 12 7 ENE
24.11.2020 16:00:00 22,2 11,7 9 5 NE
24.11.2020 15:00:00 23,3 10,8 13 7 ENE
24.11.2020 14:00:00 24,1 9,3 14 8 ENE
24.11.2020 13:00:00 24,2 9,9 15 8 ENE
24.11.2020 12:00:00 24,1 8,9 15 8 E
24.11.2020 11:00:00 23,2 11,1 16 9 ENE
24.11.2020 10:00:00 21,5 12,2 22 12 ENE
24.11.2020 09:00:00 - - - - -
24.11.2020 08:00:00 18,7 12,9 19 11 ENE
24.11.2020 07:00:00 16,7 12,3 18 10 ENE
24.11.2020 06:00:00 16,1 12,5 16 9 ENE
24.11.2020 05:00:00 16,0 12,7 11 6 NNE
24.11.2020 04:00:00 16,0 12,5 6 4 NNE
24.11.2020 03:00:00 16,1 12,1 7 4 NE
24.11.2020 02:00:00 16,4 12,3 9 5 ENE
24.11.2020 01:00:00 17,6 12,6 12 6 NE
24.11.2020 00:00:00 17,8 12,7 12 6 ENE
23.11.2020 23:00:00 17,9 12,7 13 7 ENE
23.11.2020 22:00:00 18,6 12,9 14 7 ENE
23.11.2020 21:00:00 18,5 13,0 14 8 ENE
23.11.2020 20:00:00 19,0 13,8 10 5 ENE
23.11.2020 19:00:00 19,5 14,1 11 6 NE
23.11.2020 18:00:00 21,1 14,7 18 10 NNE
23.11.2020 17:00:00 21,7 14,7 23 12 NNE
23.11.2020 16:00:00 22,4 15,6 29 16 N
23.11.2020 15:00:00 22,5 15,4 30 16 N
23.11.2020 14:00:00 22,4 16,1 30 16 N
23.11.2020 13:00:00 22,5 15,5 26 14 N
23.11.2020 12:00:00 22,2 15,0 19 10 NNW
23.11.2020 11:00:00 21,6 15,8 14 8 NNW
23.11.2020 10:00:00 21,3 15,7 5 3 NW
23.11.2020 09:00:00 21,0 16,1 2 1 ESE
23.11.2020 08:00:00 19,0 15,5 7 4 E
23.11.2020 07:00:00 17,3 14,9 8 5 E
23.11.2020 06:00:00 16,9 14,7 8 4 E
23.11.2020 05:00:00 17,5 15,0 10 5 E
23.11.2020 04:00:00 17,5 15,3 10 5 ESE
23.11.2020 03:00:00 17,5 15,0 8 4 E
23.11.2020 02:00:00 17,8 15,2 9 5 E
23.11.2020 01:00:00 18,6 15,4 6 3 E
23.11.2020 00:00:00 19,2 15,7 7 4 ESE
22.11.2020 23:00:00 - - - - -
22.11.2020 22:00:00 19,4 16,0 7 4 ESE
22.11.2020 21:00:00 19,0 15,9 10 5 NE
22.11.2020 20:00:00 20,0 15,4 6 3 E
22.11.2020 19:00:00 20,9 16,2 7 4 SE
22.11.2020 18:00:00 21,5 16,1 10 6 SE
22.11.2020 17:00:00 21,5 15,8 7 4 SSE
22.11.2020 16:00:00 21,6 15,8 11 6 S
22.11.2020 15:00:00 21,7 15,5 12 6 S
22.11.2020 14:00:00 21,6 15,3 17 9 SSW
22.11.2020 13:00:00 21,3 15,4 17 9 S
22.11.2020 12:00:00 20,9 14,9 14 7 S
22.11.2020 11:00:00 20,9 14,5 15 8 SSW
22.11.2020 10:00:00 20,1 13,6 15 8 SSE
22.11.2020 09:00:00 19,3 13,4 16 8 SSE
22.11.2020 08:00:00 18,0 13,7 10 5 SE
22.11.2020 07:00:00 17,7 13,5 15 8 SE
22.11.2020 06:00:00 17,6 13,6 12 7 SE
22.11.2020 05:00:00 17,5 13,6 15 8 SE
22.11.2020 04:00:00 17,7 13,7 12 6 SE
22.11.2020 03:00:00 17,2 13,9 19 10 SSE
22.11.2020 02:00:00 16,8 13,7 16 8 SSE
22.11.2020 01:00:00 17,3 13,2 16 9 SE
22.11.2020 00:00:00 17,5 13,3 14 8 SE
21.11.2020 23:00:00 17,2 13,2 13 7 SE
21.11.2020 22:00:00 17,0 13,1 12 7 ESE
21.11.2020 21:00:00 16,8 13,9 7 4 E
21.11.2020 20:00:00 17,3 14,3 15 8 SE
21.11.2020 19:00:00 17,6 14,6 14 8 SE
21.11.2020 18:00:00 18,8 15,0 26 14 S
21.11.2020 17:00:00 18,6 14,9 14 8 SSE
21.11.2020 16:00:00 19,8 14,9 27 15 SSW
21.11.2020 15:00:00 20,0 15,2 28 15 SSW
21.11.2020 14:00:00 19,5 14,9 32 17 S
21.11.2020 13:00:00 19,0 15,0 37 20 S
21.11.2020 12:00:00 17,5 13,9 29 16 S
21.11.2020 11:00:00 16,8 13,7 28 15 SSE
21.11.2020 10:00:00 16,2 13,8 26 14 SSE
21.11.2020 09:00:00 - - - - -
21.11.2020 08:00:00 15,0 13,2 24 13 SE
21.11.2020 07:00:00 14,7 12,8 11 6 ESE
21.11.2020 06:00:00 14,8 12,8 18 10 SE
21.11.2020 05:00:00 15,2 13,0 21 12 SE
21.11.2020 04:00:00 15,9 13,4 20 11 SE
21.11.2020 03:00:00 19,0 12,6 19 10 WNW
21.11.2020 02:00:00 20,7 14,6 30 16 W
21.11.2020 01:00:00 16,9 14,3 29 16 W
21.11.2020 00:00:00 15,5 13,4 14 7 ESE
20.11.2020 23:00:00 16,5 13,3 16 8 SE
20.11.2020 22:00:00 20,7 14,4 33 18 SSW
20.11.2020 21:00:00 18,7 12,3 13 7 SSE
20.11.2020 20:00:00 21,0 14,6 27 15 SSW
20.11.2020 19:00:00 21,2 14,5 19 11 WSW
20.11.2020 18:00:00 21,1 14,2 25 13 WSW
20.11.2020 17:00:00 20,9 14,4 24 13 WSW
20.11.2020 16:00:00 21,8 15,4 28 15 WSW
20.11.2020 15:00:00 21,9 15,2 26 14 WSW
20.11.2020 14:00:00 21,9 15,6 29 15 WSW
20.11.2020 13:00:00 21,5 15,3 28 15 WSW
20.11.2020 12:00:00 19,4 14,6 7 4 SSW
20.11.2020 11:00:00 19,1 14,8 13 7 S
20.11.2020 10:00:00 20,1 16,4 11 6 SE
20.11.2020 09:00:00 20,8 16,6 21 11 S
20.11.2020 08:00:00 19,9 16,1 23 12 SSE
20.11.2020 07:00:00 18,7 16,0 25 14 SSE
20.11.2020 06:00:00 18,6 16,0 20 11 SSE
20.11.2020 05:00:00 18,7 15,5 16 9 SE
20.11.2020 04:00:00 18,9 15,6 13 7 SE
20.11.2020 03:00:00 19,4 15,8 13 7 SE
20.11.2020 02:00:00 19,6 16,2 13 7 SE
20.11.2020 01:00:00 19,8 16,3 17 9 SE

tt = Température de l'air
td = dewpoint
ff = Vitesse du vent
dd = Direction du vent

stations d'obs. à proximité